Time;durP1;ratioP1;P1;durP2;ratioP2;P2;SDS_P1;SDS_P2;PMS_P1;PMS_P2;Temp;Humidity;BMP_temperature;BMP_pressure;BME280_temperature;BME280_humidity;BME280_pressure;Samples;Min_cycle;Max_cycle;Signal;HPM_P1;HPM_P2
2022/10/13 00:00:41;;;;;;;55.67;4.35;;;;;;;17.16;57.02;101510.38;4954265;28;20412;-76
2022/10/13 00:03:07;;;;;;;16.05;2.30;;;;;;;17.12;57.17;101498.97;4954130;29;20031;-76
2022/10/13 00:05:33;;;;;;;5.13;1.80;;;;;;;17.25;57.24;101520.38;4954276;28;20317;-76
2022/10/13 00:07:59;;;;;;;23.25;2.55;;;;;;;17.28;57.02;101518.25;4960973;28;20109;-76
2022/10/13 00:10:25;;;;;;;3.35;1.30;;;;;;;17.27;57.24;101519.28;4967694;29;20517;-76
2022/10/13 00:12:51;;;;;;;2.70;1.27;;;;;;;17.29;56.92;101522.69;4964710;28;20031;-76
2022/10/13 00:15:17;;;;;;;4.85;1.77;;;;;;;17.29;57.03;101514.53;4956743;29;20042;-76
2022/10/13 00:17:42;;;;;;;279.85;16.70;;;;;;;17.28;56.98;101515.53;4953891;28;20027;-76
2022/10/13 00:20:09;;;;;;;81.45;4.85;;;;;;;17.25;57.07;101509.50;4953875;28;20026;-76
2022/10/13 00:22:34;;;;;;;10.80;1.92;;;;;;;17.26;56.96;101506.66;4953864;28;20027;-76
2022/10/13 00:25:01;;;;;;;6.20;1.63;;;;;;;17.26;57.08;101506.66;4953336;28;20141;-76
2022/10/13 00:27:26;;;;;;;5.47;1.50;;;;;;;17.11;57.03;101483.66;4953370;28;20418;-76
2022/10/13 00:29:52;;;;;;;20.10;2.40;;;;;;;17.20;57.17;101504.53;4953709;28;20037;-76
2022/10/13 00:32:17;;;;;;;10.15;1.40;;;;;;;17.13;57.33;101497.94;4953645;28;20027;-75
2022/10/13 00:34:43;;;;;;;10.45;1.77;;;;;;;17.07;57.67;101506.69;4953538;28;20502;-76
2022/10/13 00:37:08;;;;;;;7.03;1.60;;;;;;;17.08;57.50;101508.41;4953144;28;20062;-75
2022/10/13 00:39:36;;;;;;;2.22;1.40;;;;;;;17.07;57.48;101509.41;4953505;28;20078;-76
2022/10/13 00:42:01;;;;;;;2.13;1.45;;;;;;;16.90;57.84;101482.97;4953205;29;20804;-76
2022/10/13 00:44:52;;;;;;;4.05;1.30;;;;;;;17.10;57.80;101503.69;4953324;29;20051;-76
2022/10/13 00:47:19;;;;;;;11.02;1.50;;;;;;;17.06;57.92;101495.97;4953538;29;20031;-78
2022/10/13 00:49:45;;;;;;;4.68;1.27;;;;;;;17.10;58.21;101510.97;4953058;28;20427;-76
2022/10/13 00:52:13;;;;;;;11.25;1.35;;;;;;;17.13;57.98;101499.81;4952976;28;20030;-76
2022/10/13 00:54:39;;;;;;;18.00;1.67;;;;;;;17.15;58.03;101498.69;4953213;28;20049;-75
2022/10/13 00:57:07;;;;;;;35.45;4.18;;;;;;;17.16;57.87;101503.09;4952751;29;20471;-76
2022/10/13 00:59:34;;;;;;;52.58;3.80;;;;;;;17.10;57.86;101484.66;4953192;28;20086;-77
2022/10/13 01:02:01;;;;;;;12.40;1.88;;;;;;;17.12;57.77;101492.69;4952799;28;20499;-75
2022/10/13 01:04:40;;;;;;;2.65;1.38;;;;;;;17.14;58.12;101496.09;4952165;28;20039;-76
2022/10/13 01:07:06;;;;;;;27.20;3.20;;;;;;;17.10;58.08;101500.97;4952593;29;20407;-75
2022/10/13 01:09:36;;;;;;;25.23;2.63;;;;;;;16.95;58.11;101491.53;4952882;28;20043;-75
2022/10/13 01:12:26;;;;;;;7.30;2.22;;;;;;;17.04;58.08;101509.69;4952762;29;20027;-75
2022/10/13 01:15:05;;;;;;;9.60;1.40;;;;;;;16.97;58.46;101505.00;4952860;29;20098;-76
2022/10/13 01:17:44;;;;;;;3.70;1.30;;;;;;;16.97;58.49;101511.28;4952912;28;20027;-77
2022/10/13 01:20:28;;;;;;;7.32;1.55;;;;;;;16.97;58.65;101510.44;4953041;28;20035;-76
2022/10/13 01:23:16;;;;;;;16.25;1.98;;;;;;;16.96;58.61;101504.13;4952591;29;20030;-77
2022/10/13 01:25:59;;;;;;;5.20;2.03;;;;;;;16.95;58.63;101513.28;4960335;29;20039;-77
2022/10/13 01:28:34;;;;;;;12.68;1.60;;;;;;;16.91;58.64;101500.97;4962818;29;20019;-76
2022/10/13 01:31:23;;;;;;;6.10;1.40;;;;;;;16.88;58.85;101496.69;4957060;29;20031;-76
2022/10/13 01:33:58;;;;;;;3.03;1.73;;;;;;;16.85;58.74;101507.00;4952227;28;20544;-76
2022/10/13 01:36:35;;;;;;;2.60;1.30;;;;;;;16.76;58.95;101502.41;4952049;28;20034;-76
2022/10/13 01:39:33;;;;;;;1.98;1.20;;;;;;;16.68;59.06;101491.41;4952111;29;20078;-77
2022/10/13 01:42:12;;;;;;;17.08;2.28;;;;;;;16.65;59.11;101499.84;4892355;29;20055;-76
2022/10/13 01:44:42;;;;;;;5.25;1.27;;;;;;;16.59;59.48;101505.84;4892738;29;20100;-76
2022/10/13 01:47:10;;;;;;;7.93;1.70;;;;;;;16.54;59.51;101498.16;4892377;29;20048;-76
2022/10/13 01:49:37;;;;;;;3.75;1.83;;;;;;;16.59;59.61;101501.28;4892567;29;20129;-76
2022/10/13 01:52:11;;;;;;;3.92;1.92;;;;;;;16.61;59.43;101504.72;4892772;29;20490;-76
2022/10/13 01:54:37;;;;;;;3.95;1.70;;;;;;;16.63;59.54;101497.31;4892523;29;20470;-75
2022/10/13 01:57:03;;;;;;;201.88;11.57;;;;;;;16.61;59.24;101490.25;4892440;29;20033;-75
2022/10/13 01:59:34;;;;;;;28.83;2.30;;;;;;;16.43;59.67;101459.34;4892172;29;20036;-75
2022/10/13 02:02:22;;;;;;;12.38;2.22;;;;;;;16.42;59.50;101460.38;4891998;29;20033;-75
2022/10/13 02:05:05;;;;;;;29.10;2.30;;;;;;;16.61;59.54;101498.41;4892286;29;20036;-77
2022/10/13 02:07:52;;;;;;;29.23;1.75;;;;;;;16.60;59.59;101507.59;4892171;29;20116;-76
2022/10/13 02:10:27;;;;;;;9.73;1.73;;;;;;;16.60;59.48;101502.16;4892617;29;20497;-77
2022/10/13 02:13:05;;;;;;;6.30;1.45;;;;;;;16.53;59.40;101490.97;4892058;29;20082;-76
2022/10/13 02:15:38;;;;;;;3.38;1.70;;;;;;;16.59;59.47;101514.00;4892001;29;20040;-76
2022/10/13 02:18:06;;;;;;;7.25;1.50;;;;;;;16.60;59.43;101502.16;4899085;29;20075;-74
2022/10/13 02:20:32;;;;;;;13.30;1.90;;;;;;;16.60;59.72;101508.44;4951564;29;20023;-76
2022/10/13 02:23:07;;;;;;;20.23;1.90;;;;;;;16.62;59.38;101513.72;4951723;28;20055;-75
2022/10/13 02:25:32;;;;;;;3.15;1.13;;;;;;;16.60;59.60;101513.03;4951516;28;20069;-76
2022/10/13 02:28:00;;;;;;;33.05;3.20;;;;;;;16.62;59.62;101516.44;4951288;29;20054;-76
2022/10/13 02:30:28;;;;;;;170.82;10.90;;;;;;;16.63;59.92;101519.03;4951289;28;20027;-76
2022/10/13 02:32:53;;;;;;;116.72;5.95;;;;;;;16.64;59.77;101517.16;4951481;29;20109;-77
2022/10/13 02:35:19;;;;;;;41.00;3.85;;;;;;;16.62;59.82;101511.00;4951654;28;20031;-76
2022/10/13 02:37:45;;;;;;;43.90;3.47;;;;;;;16.66;60.00;101518.75;4950877;29;20027;-77
2022/10/13 02:40:10;;;;;;;17.13;2.92;;;;;;;16.69;59.56;101523.03;4953862;28;20035;-76
2022/10/13 02:42:36;;;;;;;161.32;9.63;;;;;;;16.69;59.70;101517.59;4953807;29;20025;-75
2022/10/13 02:45:01;;;;;;;95.65;6.68;;;;;;;16.71;59.63;101521.03;4953651;28;20110;-76
2022/10/13 02:47:27;;;;;;;50.38;4.30;;;;;;;16.71;59.56;101518.31;4951301;28;20418;-76
2022/10/13 02:49:52;;;;;;;19.58;2.30;;;;;;;16.54;59.54;101486.41;4951139;28;20135;-77
2022/10/13 02:52:18;;;;;;;15.60;2.35;;;;;;;16.65;59.51;101505.28;4951170;28;20130;-76
2022/10/13 02:54:43;;;;;;;6.75;1.52;;;;;;;16.72;59.23;101518.19;4950871;29;20114;-76
2022/10/13 02:57:08;;;;;;;84.75;7.35;;;;;;;16.70;59.51;101520.16;4950885;28;20184;-77
2022/10/13 02:59:34;;;;;;;37.03;3.05;;;;;;;16.65;59.73;101518.88;4950874;28;20035;-77
2022/10/13 03:01:59;;;;;;;11.40;2.13;;;;;;;16.52;59.66;101505.53;4950924;28;20039;-75
2022/10/13 03:04:25;;;;;;;8.77;1.70;;;;;;;16.65;59.79;101532.44;4951235;28;20451;-76
2022/10/13 03:06:50;;;;;;;23.35;2.40;;;;;;;16.68;59.98;101526.72;4951112;28;20034;-76
2022/10/13 03:09:16;;;;;;;14.40;2.50;;;;;;;16.72;59.83;101539.03;4951083;28;20028;-75
2022/10/13 03:11:41;;;;;;;15.35;2.15;;;;;;;16.53;59.74;101498.25;4950765;28;20065;-76
2022/10/13 03:14:06;;;;;;;235.23;14.13;;;;;;;16.74;59.44;101532.47;4950878;28;20110;-75
2022/10/13 03:16:32;;;;;;;31.35;4.13;;;;;;;16.77;59.64;101536.75;4950660;28;20506;-76
2022/10/13 03:18:57;;;;;;;11.77;2.33;;;;;;;16.75;59.34;101533.31;4951297;28;20038;-77
2022/10/13 03:21:23;;;;;;;235.15;16.35;;;;;;;16.68;59.16;101526.72;4950802;28;20113;-75
2022/10/13 03:23:48;;;;;;;89.85;6.85;;;;;;;16.75;59.16;101528.75;4951083;28;20074;-75
2022/10/13 03:26:15;;;;;;;13.25;2.53;;;;;;;16.80;59.02;101525.59;4948877;28;20107;-77
2022/10/13 03:28:40;;;;;;;49.88;4.95;;;;;;;16.82;58.80;101526.28;4944628;29;20035;-76
2022/10/13 03:31:09;;;;;;;139.32;8.50;;;;;;;16.86;58.66;101520.44;4925180;29;20506;-76
2022/10/13 03:33:34;;;;;;;269.08;13.77;;;;;;;16.86;58.83;101516.88;4946359;28;20491;-76
2022/10/13 03:36:02;;;;;;;16.73;2.72;;;;;;;16.92;58.83;101518.16;4952382;28;20095;-76
2022/10/13 03:38:29;;;;;;;38.22;4.45;;;;;;;16.88;58.57;101502.13;4954606;28;20039;-76
2022/10/13 03:40:54;;;;;;;51.67;4.95;;;;;;;16.92;58.83;101524.44;4970119;28;20608;-76
2022/10/13 03:43:20;;;;;;;22.70;2.85;;;;;;;16.98;58.52;101504.84;4954756;28;20079;-77
2022/10/13 03:45:59;;;;;;;40.13;2.88;;;;;;;16.98;58.41;101507.56;4954626;28;20384;-77
2022/10/13 03:48:25;;;;;;;66.22;5.65;;;;;;;16.93;58.48;101498.13;4947196;28;20028;-79
2022/10/13 03:50:50;;;;;;;22.63;3.70;;;;;;;16.93;58.74;101498.13;4935356;29;20035;-76
2022/10/13 03:53:16;;;;;;;251.43;16.33;;;;;;;16.95;58.77;101494.25;4934040;29;20144;-77
2022/10/13 03:55:41;;;;;;;179.13;13.48;;;;;;;16.97;58.63;101489.53;4936238;29;20019;-76
2022/10/13 03:58:07;;;;;;;204.05;14.73;;;;;;;17.01;58.59;101484.66;4945928;29;20079;-77
2022/10/13 04:00:35;;;;;;;67.95;5.47;;;;;;;16.98;58.71;101474.09;4946728;29;20027;-76
2022/10/13 04:03:01;;;;;;;19.63;2.92;;;;;;;16.96;58.42;101487.84;4941884;29;20523;-76
2022/10/13 04:05:26;;;;;;;9.43;2.85;;;;;;;16.84;58.52;101469.97;4935296;29;20027;-81
2022/10/13 04:07:52;;;;;;;284.98;19.42;;;;;;;16.89;58.67;101489.41;4935031;29;20027;-78
2022/10/13 04:10:17;;;;;;;371.00;23.10;;;;;;;16.85;58.78;101491.53;4934927;29;20035;-78
2022/10/13 04:12:42;;;;;;;118.55;8.80;;;;;;;16.81;58.55;101475.69;4933050;29;20032;-76
2022/10/13 04:15:09;;;;;;;122.55;8.82;;;;;;;16.77;58.93;101476.97;4934151;29;20031;-77
2022/10/13 04:17:34;;;;;;;240.63;16.60;;;;;;;16.69;58.71;101476.84;4934401;29;20024;-77
2022/10/13 04:19:59;;;;;;;293.35;19.10;;;;;;;16.52;58.89;101456.66;4934038;29;20035;-79
2022/10/13 04:22:25;;;;;;;355.35;19.27;;;;;;;16.64;59.10;101481.84;4934331;29;20031;-79
2022/10/13 04:24:50;;;;;;;120.35;9.60;;;;;;;16.42;59.21;101450.34;4934443;29;20028;-76
2022/10/13 04:27:17;;;;;;;105.13;6.00;;;;;;;16.20;59.36;101418.06;4932712;29;20075;-77
2022/10/13 04:29:43;;;;;;;49.10;5.63;;;;;;;16.23;59.64;101440.38;4933924;29;20024;-77
2022/10/13 04:32:08;;;;;;;14.88;3.20;;;;;;;16.31;59.82;101478.50;4934168;29;20475;-76
2022/10/13 04:34:34;;;;;;;214.85;12.63;;;;;;;16.24;59.69;101469.19;4934282;29;20028;-77
2022/10/13 04:36:59;;;;;;;208.10;13.35;;;;;;;16.24;60.33;101485.47;4933870;29;20035;-75
2022/10/13 04:39:25;;;;;;;56.20;4.25;;;;;;;16.06;60.17;101456.44;4932750;29;20090;-75
2022/10/13 04:41:50;;;;;;;46.95;4.18;;;;;;;16.21;60.49;101488.47;4933956;29;20143;-76
2022/10/13 04:44:16;;;;;;;359.77;21.60;;;;;;;16.01;60.63;101456.88;4933858;29;20039;-77
2022/10/13 04:46:41;;;;;;;198.82;16.38;;;;;;;16.22;60.71;101492.06;4933508;29;20443;-76
2022/10/13 04:49:07;;;;;;;318.65;18.38;;;;;;;16.25;60.72;101487.22;4934078;29;20051;-76
2022/10/13 04:51:32;;;;;;;160.00;10.48;;;;;;;16.24;60.91;101485.47;4933812;29;20031;-75
2022/10/13 04:54:00;;;;;;;355.00;29.30;;;;;;;16.30;60.91;101495.78;4932116;29;20370;-77
2022/10/13 04:56:26;;;;;;;288.95;24.70;;;;;;;16.19;60.96;101474.19;4932440;29;20034;-76
2022/10/13 04:58:52;;;;;;;281.25;23.95;;;;;;;16.19;61.00;101476.91;4932764;29;20054;-76
2022/10/13 05:01:22;;;;;;;511.52;42.13;;;;;;;16.36;61.07;101498.94;4933022;29;20480;-78
2022/10/13 05:03:51;;;;;;;127.25;9.25;;;;;;;16.18;60.70;101453.47;4933834;29;20043;-76
2022/10/13 05:06:20;;;;;;;255.13;17.63;;;;;;;16.32;60.81;101482.94;4933372;29;20031;-77
2022/10/13 05:08:46;;;;;;;288.20;19.45;;;;;;;16.38;60.91;101502.38;4933104;29;20103;-76
2022/10/13 05:11:11;;;;;;;114.00;8.73;;;;;;;16.34;60.77;101502.66;4932539;29;20443;-77
2022/10/13 05:13:37;;;;;;;417.05;27.70;;;;;;;16.22;61.44;101506.50;4948405;29;20031;-77
2022/10/13 05:16:11;;;;;;;545.00;47.13;;;;;;;16.32;61.38;101509.22;4950766;29;20035;-79
2022/10/13 05:18:37;;;;;;;149.55;10.77;;;;;;;16.20;61.32;101497.66;4947208;29;20115;-76
2022/10/13 05:21:10;;;;;;;40.50;7.88;;;;;;;16.22;61.32;101500.19;4932798;29;20071;-78
2022/10/13 05:23:37;;;;;;;28.33;5.97;;;;;;;16.22;61.04;101481.19;4932770;29;20032;-76
2022/10/13 05:26:05;;;;;;;46.00;7.93;;;;;;;16.32;61.18;101510.09;4932516;29;20032;-77
2022/10/13 05:28:31;;;;;;;64.85;7.97;;;;;;;16.25;60.87;101481.78;4932589;29;20031;-76
2022/10/13 05:30:56;;;;;;;155.40;14.45;;;;;;;16.36;60.75;101488.94;4932089;29;20150;-76
2022/10/13 05:33:22;;;;;;;111.75;10.15;;;;;;;16.57;61.22;101518.72;4932139;29;20181;-80
2022/10/13 05:35:47;;;;;;;49.75;10.57;;;;;;;16.54;61.79;101518.97;4931721;29;20035;-81
2022/10/13 05:38:12;;;;;;;118.07;14.35;;;;;;;16.57;61.86;101518.72;4931972;29;20067;-78
2022/10/13 05:40:38;;;;;;;86.88;12.38;;;;;;;16.62;61.88;101525.44;4930524;29;20095;-78
2022/10/13 05:43:03;;;;;;;53.17;7.88;;;;;;;16.54;61.47;101495.44;4931730;29;20487;-78
2022/10/13 05:45:31;;;;;;;21.45;6.05;;;;;;;16.78;61.22;101527.59;4932047;29;20028;-79
2022/10/13 05:47:57;;;;;;;112.78;12.23;;;;;;;16.70;60.93;101497.56;4931905;29;20031;-78
2022/10/13 05:50:23;;;;;;;89.57;10.18;;;;;;;16.86;61.31;101535.88;4931602;29;20055;-78
2022/10/13 05:52:50;;;;;;;32.13;7.32;;;;;;;17.00;61.01;101531.91;4935288;29;20030;-79
2022/10/13 05:55:17;;;;;;;29.15;7.80;;;;;;;17.11;60.74;101531.72;4951155;29;20033;-78
2022/10/13 05:57:47;;;;;;;26.58;7.72;;;;;;;17.15;60.62;101534.03;4948521;29;20468;-77
2022/10/13 06:00:15;;;;;;;52.83;23.13;;;;;;;17.16;60.47;101523.97;4950740;29;20032;-78
2022/10/13 06:02:56;;;;;;;37.78;9.10;;;;;;;17.34;60.13;101536.69;4950903;28;20063;-79
2022/10/13 06:05:25;;;;;;;106.43;29.48;;;;;;;17.42;60.26;101534.13;4950853;29;20032;-79
2022/10/13 06:07:50;;;;;;;37.00;8.93;;;;;;;17.37;60.11;101522.81;4950640;28;20023;-77
2022/10/13 06:10:17;;;;;;;32.72;8.88;;;;;;;17.46;60.38;101533.81;4950933;28;20065;-80
2022/10/13 06:12:42;;;;;;;92.47;13.40;;;;;;;17.51;60.21;101526.94;4951758;29;20031;-78
2022/10/13 06:15:08;;;;;;;68.38;25.75;;;;;;;17.51;60.07;101509.75;4951777;28;20098;-78
2022/10/13 06:17:37;;;;;;;96.05;13.20;;;;;;;17.71;59.92;101535.91;4951836;28;20122;-81
2022/10/13 06:20:05;;;;;;;49.22;19.80;;;;;;;17.76;60.17;101531.75;4951878;28;20101;-78
2022/10/13 06:22:32;;;;;;;38.03;12.13;;;;;;;17.86;59.75;101527.09;4952331;28;20406;-81
2022/10/13 06:24:57;;;;;;;34.88;12.35;;;;;;;17.89;59.42;101518.63;4952218;28;20118;-78
2022/10/13 06:27:22;;;;;;;72.63;12.32;;;;;;;17.98;59.32;101516.88;4954864;28;20102;-78
2022/10/13 06:29:48;;;;;;;31.02;8.98;;;;;;;18.17;59.07;101519.50;4976032;28;20038;-79
2022/10/13 06:32:13;;;;;;;22.27;4.70;;;;;;;18.29;58.62;101518.28;4974903;29;20095;-79
2022/10/13 06:34:39;;;;;;;29.77;9.00;;;;;;;18.37;58.28;101515.66;4966742;29;20077;-78
2022/10/13 06:37:04;;;;;;;84.70;12.48;;;;;;;18.46;57.97;101520.19;4951047;29;20027;-78
2022/10/13 06:39:30;;;;;;;64.18;13.90;;;;;;;18.52;57.92;101515.16;4951299;28;20463;-79
2022/10/13 06:41:55;;;;;;;74.80;39.80;;;;;;;18.57;58.08;101515.53;4951292;28;20110;-79
2022/10/13 06:44:20;;;;;;;59.75;13.98;;;;;;;18.70;57.71;101513.28;4950934;28;20410;-78
2022/10/13 06:46:46;;;;;;;35.08;5.55;;;;;;;18.76;56.85;101509.94;4950807;28;20032;-78
2022/10/13 06:49:11;;;;;;;75.70;29.48;;;;;;;18.82;57.27;101514.78;4950793;29;20509;-79
2022/10/13 06:51:37;;;;;;;13.48;7.05;;;;;;;18.89;57.29;101526.78;4950774;29;20023;-80
2022/10/13 06:54:02;;;;;;;57.75;16.38;;;;;;;18.99;57.20;101517.47;4951055;29;20031;-78
2022/10/13 06:56:28;;;;;;;94.95;9.25;;;;;;;18.87;56.71;101479.72;4950793;28;20031;-77
2022/10/13 06:58:54;;;;;;;190.05;26.77;;;;;;;19.26;56.02;101529.28;4950565;28;20126;-76
2022/10/13 07:01:19;;;;;;;73.50;7.93;;;;;;;19.42;55.83;101524.84;4932343;28;20143;-76
2022/10/13 07:03:49;;;;;;;152.18;41.10;;;;;;;19.47;55.47;101522.50;4950147;29;20487;-76
2022/10/13 07:06:15;;;;;;;31.30;4.35;;;;;;;19.07;55.14;101500.34;4950822;28;20039;-76
2022/10/13 07:08:40;;;;;;;128.27;8.95;;;;;;;19.28;55.41;101511.75;4950394;29;20097;-77
2022/10/13 07:11:12;;;;;;;63.30;6.10;;;;;;;19.52;55.38;101522.84;4951041;28;20031;-75
2022/10/13 07:13:38;;;;;;;18.95;3.17;;;;;;;19.37;53.62;101505.34;4950770;29;20055;-77
2022/10/13 07:16:04;;;;;;;8.52;2.40;;;;;;;19.59;53.41;101530.41;4950740;29;20047;-77
2022/10/13 07:18:30;;;;;;;6.47;1.60;;;;;;;19.44;51.33;101513.78;4950376;29;20062;-78
2022/10/13 07:20:57;;;;;;;65.07;5.20;;;;;;;19.50;51.40;101516.72;4950677;29;20037;-78
2022/10/13 07:23:23;;;;;;;8.93;2.58;;;;;;;19.53;51.28;101519.13;4950787;29;20144;-77
2022/10/13 07:25:48;;;;;;;33.25;3.45;;;;;;;19.54;50.63;101518.09;4950503;29;20407;-77
2022/10/13 07:28:14;;;;;;;9.80;3.00;;;;;;;19.40;50.21;101498.72;4950692;29;20035;-78
2022/10/13 07:30:39;;;;;;;92.70;8.18;;;;;;;19.53;48.67;101499.16;4950154;29;20055;-79
2022/10/13 07:33:05;;;;;;;11.45;1.33;;;;;;;19.61;48.61;101501.06;4950405;29;20027;-77
2022/10/13 07:35:30;;;;;;;40.50;2.42;;;;;;;19.69;48.88;101504.72;4949434;29;20490;-75
2022/10/13 07:37:56;;;;;;;70.13;4.80;;;;;;;19.69;49.02;101502.00;4950651;29;20043;-77
2022/10/13 07:40:22;;;;;;;32.65;3.70;;;;;;;19.73;48.42;101505.22;4947744;29;20473;-76
2022/10/13 07:42:48;;;;;;;89.68;7.78;;;;;;;19.74;48.01;101507.81;4949408;28;20082;-76
2022/10/13 07:45:13;;;;;;;68.60;4.38;;;;;;;19.90;48.15;101502.44;4958288;28;20042;-77
2022/10/13 07:47:39;;;;;;;23.33;2.10;;;;;;;19.97;47.26;101505.34;4958516;28;20105;-78
2022/10/13 07:50:04;;;;;;;331.88;24.98;;;;;;;19.85;46.98;101503.91;4960117;28;20055;-77
2022/10/13 07:52:30;;;;;;;18.17;2.50;;;;;;;19.86;47.55;101502.91;4949133;28;20034;-76
2022/10/13 07:54:56;;;;;;;17.65;2.40;;;;;;;19.79;47.97;101466.34;4948154;29;20027;-76
2022/10/13 07:57:25;;;;;;;14.77;2.38;;;;;;;20.06;46.81;101497.00;4947858;29;20035;-76
2022/10/13 07:59:51;;;;;;;10.68;1.92;;;;;;;20.02;46.75;101505.72;4948957;28;20034;-77
2022/10/13 08:02:16;;;;;;;19.38;2.78;;;;;;;20.16;46.67;101501.47;4951495;28;20024;-76
2022/10/13 08:04:42;;;;;;;14.77;1.60;;;;;;;20.16;46.38;101496.88;4950039;28;20423;-77
2022/10/13 08:07:07;;;;;;;5.80;1.10;;;;;;;20.05;46.64;101473.47;4949380;28;20481;-77
2022/10/13 08:09:33;;;;;;;37.85;2.75;;;;;;;20.25;46.23;101501.34;4948931;28;20038;-78
2022/10/13 08:11:59;;;;;;;22.70;3.13;;;;;;;20.23;46.28;101497.94;4947557;29;20127;-77
2022/10/13 08:14:24;;;;;;;15.82;2.65;;;;;;;20.46;45.57;101498.19;4951178;28;20035;-78
2022/10/13 08:16:50;;;;;;;24.60;5.10;;;;;;;20.52;45.50;101501.09;4952660;28;20388;-76
2022/10/13 08:19:16;;;;;;;232.05;39.92;;;;;;;20.58;45.06;101497.69;4952314;28;20038;-77
2022/10/13 08:21:41;;;;;;;69.85;8.10;;;;;;;20.44;44.84;101468.31;4952208;28;20158;-77
2022/10/13 08:24:13;;;;;;;20.02;2.17;;;;;;;20.80;44.48;101503.53;4952955;28;20113;-76
2022/10/13 08:26:40;;;;;;;9.55;1.65;;;;;;;20.67;43.77;101505.94;4952500;28;20110;-77
2022/10/13 08:29:06;;;;;;;16.83;1.75;;;;;;;20.67;44.25;101503.19;4952033;28;20042;-77
2022/10/13 08:31:31;;;;;;;36.13;3.22;;;;;;;20.72;44.37;101506.28;4952050;28;20036;-78
2022/10/13 08:33:57;;;;;;;10.07;1.92;;;;;;;20.81;44.30;101491.59;4952294;28;20031;-78
2022/10/13 08:36:23;;;;;;;29.85;3.10;;;;;;;20.94;44.39;101483.72;4951920;28;20435;-76
2022/10/13 08:38:49;;;;;;;60.88;4.63;;;;;;;21.04;43.57;101506.28;4952096;28;20114;-76
2022/10/13 08:41:20;;;;;;;181.90;14.82;;;;;;;21.07;43.13;101497.72;4951667;29;20158;-76
2022/10/13 08:43:55;;;;;;;19.00;1.98;;;;;;;20.97;42.15;101497.06;4951709;29;20823;-77
2022/10/13 08:46:26;;;;;;;10.70;2.08;;;;;;;20.91;42.48;101454.84;4952263;29;20023;-76
2022/10/13 08:48:52;;;;;;;470.17;59.30;;;;;;;21.19;43.47;101501.03;4951777;28;20145;-77
2022/10/13 08:51:18;;;;;;;64.30;7.32;;;;;;;21.32;43.61;101490.38;4952036;28;20452;-78
2022/10/13 08:53:45;;;;;;;10.65;2.00;;;;;;;21.50;42.04;101499.25;4952146;28;20809;-78
2022/10/13 08:56:24;;;;;;;7.45;1.58;;;;;;;21.56;41.71;101498.53;4952142;28;20054;-77
2022/10/13 08:58:53;;;;;;;5.88;1.10;;;;;;;21.51;42.10;101481.78;4952551;28;20046;-75
2022/10/13 09:01:18;;;;;;;9.57;2.05;;;;;;;21.53;41.96;101469.63;4963885;29;20110;-76
2022/10/13 09:04:02;;;;;;;42.20;3.03;;;;;;;21.66;41.62;101501.94;4967694;29;20440;-77
2022/10/13 09:06:42;;;;;;;17.23;1.60;;;;;;;21.68;41.40;101498.00;4959344;28;20142;-76
2022/10/13 09:09:11;;;;;;;59.10;3.83;;;;;;;21.58;40.85;101500.09;4951542;28;20359;-77
2022/10/13 09:11:39;;;;;;;61.25;2.97;;;;;;;21.53;40.80;101499.75;4952254;28;20114;-81
2022/10/13 09:14:10;;;;;;;43.08;3.28;;;;;;;21.43;41.13;101488.16;4954676;28;20039;-83
2022/10/13 09:16:42;;;;;;;61.33;26.52;;;;;;;21.46;41.18;101489.69;4952857;29;20063;-83
2022/10/13 09:19:26;;;;;;;18.75;10.40;;;;;;;21.40;41.72;101490.38;4952980;28;20023;-83
2022/10/13 09:22:14;;;;;;;16.40;2.78;;;;;;;21.54;41.53;101490.53;4950180;29;20031;-80
2022/10/13 09:24:39;;;;;;;53.25;3.63;;;;;;;21.46;41.79;101476.00;4951218;28;20103;-81
2022/10/13 09:27:12;;;;;;;42.15;2.88;;;;;;;21.34;41.74;101470.03;4951608;28;20034;-80
2022/10/13 09:29:38;;;;;;;14.88;1.85;;;;;;;21.43;41.42;101476.34;4951219;29;20038;-81
2022/10/13 09:32:13;;;;;;;8.40;1.98;;;;;;;21.77;41.15;101496.13;4950775;29;20026;-82
2022/10/13 09:34:39;;;;;;;20.25;1.83;;;;;;;21.72;41.42;101465.63;4951652;28;20090;-80
2022/10/13 09:37:15;;;;;;;29.05;3.78;;;;;;;21.63;40.45;101497.69;4949680;29;20135;-80
2022/10/13 09:39:40;;;;;;;23.75;7.85;;;;;;;21.51;40.49;101484.53;4947975;28;20027;-80
2022/10/13 09:42:25;;;;;;;49.47;3.25;;;;;;;21.73;40.75;101486.53;4932176;29;20410;-81
2022/10/13 09:45:01;;;;;;;28.00;2.20;;;;;;;21.59;41.61;101477.16;4932661;29;20384;-82
2022/10/13 09:47:29;;;;;;;7.20;1.58;;;;;;;21.26;41.81;101419.94;4933136;29;20491;-81
2022/10/13 09:50:24;;;;;;;25.25;10.52;;;;;;;21.41;42.08;101451.88;4931099;29;20435;-85
2022/10/13 09:52:51;;;;;;;10.60;4.15;;;;;;;21.50;42.93;101497.38;4932850;29;20055;-82
2022/10/13 09:55:28;;;;;;;4.32;1.17;;;;;;;21.49;42.94;101487.47;4932709;29;20146;-81
2022/10/13 09:57:58;;;;;;;20.35;2.03;;;;;;;21.26;43.56;101474.66;4930866;29;20475;-80
2022/10/13 10:00:26;;;;;;;23.58;4.15;;;;;;;21.35;43.65;101479.94;4931990;29;20031;-82
2022/10/13 10:03:00;;;;;;;88.03;15.00;;;;;;;21.27;44.10;101482.72;4932761;29;20210;-81
2022/10/13 10:05:49;;;;;;;22.88;2.70;;;;;;;21.27;44.85;101490.91;4933050;29;20067;-81
2022/10/13 10:08:48;;;;;;;66.80;4.97;;;;;;;21.13;45.61;101481.50;4935770;29;20134;-80
2022/10/13 10:11:34;;;;;;;170.20;8.93;;;;;;;20.88;46.73;101482.53;4936422;29;20074;-81
2022/10/13 10:14:21;;;;;;;21.58;3.03;;;;;;;20.78;47.17;101480.97;4935541;29;20071;-82
2022/10/13 10:17:01;;;;;;;29.63;2.10;;;;;;;20.92;46.77;101488.50;4953299;29;20046;-83
2022/10/13 10:19:42;;;;;;;16.63;1.95;;;;;;;20.73;47.34;101475.19;4954708;29;20039;-82
2022/10/13 10:22:19;;;;;;;10.38;2.20;;;;;;;20.92;47.43;101483.88;4940245;29;20459;-82
2022/10/13 10:25:17;;;;;;;46.65;3.83;;;;;;;20.84;47.69;101463.91;4931146;29;20042;-82
2022/10/13 10:28:04;;;;;;;577.45;56.35;;;;;;;21.11;47.26;101460.84;4930504;29;20028;-81
2022/10/13 10:30:32;;;;;;;117.72;7.45;;;;;;;21.08;46.91;101461.16;4931370;29;20040;-82
2022/10/13 10:32:58;;;;;;;57.30;5.50;;;;;;;20.71;47.93;101469.00;4930977;29;20051;-80
2022/10/13 10:35:33;;;;;;;31.67;2.75;;;;;;;20.50;48.28;101459.44;4931318;29;20032;-80
2022/10/13 10:38:16;;;;;;;46.88;5.70;;;;;;;20.63;48.87;101468.00;4930288;29;20051;-81
2022/10/13 10:41:00;;;;;;;18.20;4.05;;;;;;;20.77;48.37;101462.84;4941602;29;20094;-80
2022/10/13 10:43:45;;;;;;;22.08;2.30;;;;;;;20.62;48.49;101466.28;4950119;28;20310;-80
2022/10/13 10:46:21;;;;;;;14.05;1.95;;;;;;;20.98;48.23;101458.59;4949820;29;20039;-81
2022/10/13 10:48:49;;;;;;;35.75;4.88;;;;;;;20.92;48.28;101448.34;4949120;29;20031;-80
2022/10/13 10:51:15;;;;;;;26.42;3.38;;;;;;;20.80;49.20;101446.09;4949764;29;20047;-82
2022/10/13 10:53:52;;;;;;;20.20;1.70;;;;;;;21.01;48.65;101449.19;4949633;29;20788;-80
2022/10/13 10:56:39;;;;;;;31.02;2.13;;;;;;;21.14;48.13;101442.19;4950167;29;20024;-80
2022/10/13 10:59:24;;;;;;;25.25;2.55;;;;;;;21.23;48.30;101437.56;4949174;29;20554;-81
2022/10/13 11:02:02;;;;;;;8.23;2.08;;;;;;;21.26;48.01;101420.78;4948131;29;20039;-81
2022/10/13 11:04:37;;;;;;;7.50;1.90;;;;;;;21.24;47.49;101394.63;4949543;29;20023;-80
2022/10/13 11:07:03;;;;;;;18.20;2.42;;;;;;;21.41;47.22;101402.59;4950767;29;20046;-83
2022/10/13 11:09:40;;;;;;;73.20;4.78;;;;;;;21.93;46.38;101429.47;4949800;29;20028;-79
2022/10/13 11:12:18;;;;;;;75.88;4.90;;;;;;;21.83;45.31;101428.81;4948433;29;20470;-80
2022/10/13 11:14:52;;;;;;;28.25;1.95;;;;;;;21.59;45.99;101422.38;4950314;29;20060;-81
2022/10/13 11:17:31;;;;;;;48.85;4.55;;;;;;;21.41;45.93;101379.84;4950548;29;20049;-79
2022/10/13 11:19:57;;;;;;;105.95;5.70;;;;;;;21.43;46.57;101408.78;4950000;29;20087;-79
2022/10/13 11:22:27;;;;;;;22.55;2.17;;;;;;;21.41;46.36;101420.91;4950965;28;20107;-79
2022/10/13 11:24:59;;;;;;;21.90;5.47;;;;;;;21.48;46.31;101417.31;4951465;28;20031;-79